Terminal Aerodrome Forecast
Issued by NWS Chicago, IL

Home | Current Version | Previous Version | Graphics & Text | Print | Product List | Glossary Off
Versions: 1 2 3 4 5 6 7 8 9 10 11 12 13 14 15 16 17 18 19 20 21 22

000
FTUS43 KLOT 292339
TAFRFD
TAF
KRFD 292339Z 3000/3024 02012KT P6SM BKN050
     FM300300 03010KT P6SM BKN025
     FM300700 03010KT P6SM VCSH OVC015
     FM301500 04013G20KT P6SM VCSH OVC010=

USA.gov is the U.S. government's official web portal to all federal, state and local government web resources and services.